sensor_id;sensor_type;location;lat;lon;timestamp;pressure;altitude;pressure_sealevel;temperature;humidity
55271;BME280;41132;47.162;9.470;2023-04-15T04:45:50;95657.09;;;3.38;100.00
55271;BME280;41132;47.162;9.470;2023-04-15T05:06:22;95647.44;;;3.49;100.00
55271;BME280;41132;47.162;9.470;2023-04-15T05:24:18;95642.47;;;3.77;100.00
55271;BME280;41132;47.162;9.470;2023-04-15T05:26:44;95635.91;;;3.73;100.00
55271;BME280;41132;47.162;9.470;2023-04-15T05:29:09;95625.09;;;3.78;100.00
55271;BME280;41132;47.162;9.470;2023-04-15T05:31:35;95639.88;;;3.87;100.00
55271;BME280;41132;47.162;9.470;2023-04-15T05:34:00;95633.16;;;4.04;100.00
55271;BME280;41132;47.162;9.470;2023-04-15T05:36:26;95644.53;;;4.12;100.00
55271;BME280;41132;47.162;9.470;2023-04-15T05:54:23;95630.44;;;4.34;100.00
55271;BME280;41132;47.162;9.470;2023-04-15T05:56:50;95622.63;;;4.44;100.00
55271;BME280;41132;47.162;9.470;2023-04-15T05:59:16;95620.84;;;4.45;100.00
55271;BME280;41132;47.162;9.470;2023-04-15T06:01:41;95634.38;;;4.58;100.00
55271;BME280;41132;47.162;9.470;2023-04-15T06:04:07;95630.81;;;4.59;100.00
55271;BME280;41132;47.162;9.470;2023-04-15T06:06:32;95632.31;;;4.62;100.00
55271;BME280;41132;47.162;9.470;2023-04-15T06:08:57;95630.19;;;4.85;100.00
55271;BME280;41132;47.162;9.470;2023-04-15T06:11:23;95631.94;;;4.94;100.00
55271;BME280;41132;47.162;9.470;2023-04-15T06:13:48;95618.78;;;5.05;100.00
55271;BME280;41132;47.162;9.470;2023-04-15T06:16:14;95617.22;;;5.12;100.00
55271;BME280;41132;47.162;9.470;2023-04-15T06:18:39;95622.44;;;5.12;100.00
55271;BME280;41132;47.162;9.470;2023-04-15T06:21:05;95599.66;;;5.24;100.00
55271;BME280;41132;47.162;9.470;2023-04-15T06:23:33;95611.53;;;5.36;100.00
55271;BME280;41132;47.162;9.470;2023-04-15T06:25:59;95621.09;;;5.36;100.00
55271;BME280;41132;47.162;9.470;2023-04-15T06:28:24;95617.34;;;5.48;100.00
55271;BME280;41132;47.162;9.470;2023-04-15T06:30:50;95615.56;;;5.49;100.00
55271;BME280;41132;47.162;9.470;2023-04-15T06:33:15;95609.41;;;5.50;100.00
55271;BME280;41132;47.162;9.470;2023-04-15T06:35:41;95611.56;;;5.54;100.00
55271;BME280;41132;47.162;9.470;2023-04-15T06:38:06;95604.63;;;5.63;97.07
55271;BME280;41132;47.162;9.470;2023-04-15T06:40:31;95622.50;;;5.76;88.94
55271;BME280;41132;47.162;9.470;2023-04-15T06:42:57;95640.38;;;5.89;89.37
55271;BME280;41132;47.162;9.470;2023-04-15T06:45:22;95634.16;;;5.99;94.95
55271;BME280;41132;47.162;9.470;2023-04-15T06:47:47;95617.41;;;5.84;95.13
55271;BME280;41132;47.162;9.470;2023-04-15T06:50:13;95633.50;;;5.97;94.82
55271;BME280;41132;47.162;9.470;2023-04-15T06:52:39;95623.22;;;5.96;91.25
55271;BME280;41132;47.162;9.470;2023-04-15T06:55:05;95622.97;;;5.89;90.34
55271;BME280;41132;47.162;9.470;2023-04-15T06:57:32;95630.97;;;6.05;90.15
55271;BME280;41132;47.162;9.470;2023-04-15T06:59:57;95628.72;;;6.11;95.01
55271;BME280;41132;47.162;9.470;2023-04-15T07:02:22;95628.00;;;6.00;95.12
55271;BME280;41132;47.162;9.470;2023-04-15T07:04:48;95638.50;;;5.81;97.93
55271;BME280;41132;47.162;9.470;2023-04-15T07:07:13;95611.06;;;5.69;96.52
55271;BME280;41132;47.162;9.470;2023-04-15T07:09:39;95615.56;;;5.94;97.84
55271;BME280;41132;47.162;9.470;2023-04-15T07:12:04;95617.41;;;6.20;93.74
55271;BME280;41132;47.162;9.470;2023-04-15T07:14:30;95617.84;;;6.33;90.48
55271;BME280;41132;47.162;9.470;2023-04-15T07:16:55;95619.94;;;6.47;91.09
55271;BME280;41132;47.162;9.470;2023-04-15T07:19:21;95604.59;;;6.26;86.50
55271;BME280;41132;47.162;9.470;2023-04-15T07:21:48;95619.94;;;6.47;82.93
55271;BME280;41132;47.162;9.470;2023-04-15T07:24:13;95608.81;;;6.63;82.07
55271;BME280;41132;47.162;9.470;2023-04-15T07:26:43;95619.19;;;6.81;82.34
55271;BME280;41132;47.162;9.470;2023-04-15T07:29:08;95621.06;;;6.97;83.76
55271;BME280;41132;47.162;9.470;2023-04-15T07:31:34;95615.94;;;7.14;81.32
55271;BME280;41132;47.162;9.470;2023-04-15T07:34:01;95615.13;;;7.21;76.36
55271;BME280;41132;47.162;9.470;2023-04-15T07:36:26;95610.91;;;7.20;74.82
55271;BME280;41132;47.162;9.470;2023-04-15T07:38:53;95618.84;;;7.53;76.03
55271;BME280;41132;47.162;9.470;2023-04-15T07:41:19;95604.19;;;7.52;78.56
55271;BME280;41132;47.162;9.470;2023-04-15T07:43:46;95616.75;;;7.57;70.91
55271;BME280;41132;47.162;9.470;2023-04-15T07:46:12;95631.94;;;7.61;67.44
55271;BME280;41132;47.162;9.470;2023-04-15T07:48:37;95608.34;;;7.87;67.93
55271;BME280;41132;47.162;9.470;2023-04-15T07:51:03;95622.06;;;7.89;61.96
55271;BME280;41132;47.162;9.470;2023-04-15T07:53:28;95621.13;;;8.07;63.66
55271;BME280;41132;47.162;9.470;2023-04-15T07:55:54;95616.88;;;8.39;67.66
55271;BME280;41132;47.162;9.470;2023-04-15T07:58:20;95615.91;;;8.56;66.15
55271;BME280;41132;47.162;9.470;2023-04-15T08:00:45;95620.66;;;8.77;67.10
55271;BME280;41132;47.162;9.470;2023-04-15T08:03:10;95606.63;;;8.70;66.95
55271;BME280;41132;47.162;9.470;2023-04-15T08:05:36;95605.94;;;8.51;63.69
55271;BME280;41132;47.162;9.470;2023-04-15T08:08:01;95610.50;;;8.74;66.71
55271;BME280;41132;47.162;9.470;2023-04-15T08:10:28;95610.50;;;8.90;66.13
55271;BME280;41132;47.162;9.470;2023-04-15T08:12:53;95614.84;;;9.23;66.28
55271;BME280;41132;47.162;9.470;2023-04-15T08:15:19;95603.84;;;9.27;64.47
55271;BME280;41132;47.162;9.470;2023-04-15T08:17:45;95594.75;;;9.07;65.92
55271;BME280;41132;47.162;9.470;2023-04-15T08:20:11;95595.50;;;9.24;64.23
55271;BME280;41132;47.162;9.470;2023-04-15T08:22:38;95604.28;;;9.47;65.78
55271;BME280;41132;47.162;9.470;2023-04-15T08:25:06;95584.63;;;9.43;61.80
55271;BME280;41132;47.162;9.470;2023-04-15T08:27:33;95598.38;;;9.76;59.71
55271;BME280;41132;47.162;9.470;2023-04-15T08:29:58;95597.19;;;10.10;56.25
55271;BME280;41132;47.162;9.470;2023-04-15T08:32:27;95564.09;;;9.86;51.61
55271;BME280;41132;47.162;9.470;2023-04-15T08:34:53;95577.66;;;10.13;52.64
55271;BME280;41132;47.162;9.470;2023-04-15T08:37:18;95587.88;;;10.31;51.52
55271;BME280;41132;47.162;9.470;2023-04-15T08:39:44;95572.19;;;10.45;56.97
55271;BME280;41132;47.162;9.470;2023-04-15T08:42:15;95588.28;;;10.80;58.60
55271;BME280;41132;47.162;9.470;2023-04-15T08:44:42;95583.28;;;10.71;51.96
55271;BME280;41132;47.162;9.470;2023-04-15T08:47:12;95590.38;;;11.15;49.49
55271;BME280;41132;47.162;9.470;2023-04-15T08:49:39;95585.00;;;11.53;47.67
55271;BME280;41132;47.162;9.470;2023-04-15T08:52:08;95552.75;;;11.59;48.12
55271;BME280;41132;47.162;9.470;2023-04-15T08:54:34;95578.50;;;12.00;48.46
55271;BME280;41132;47.162;9.470;2023-04-15T08:57:00;95577.19;;;12.53;49.99
55271;BME280;41132;47.162;9.470;2023-04-15T08:59:28;95571.69;;;12.77;46.69
55271;BME280;41132;47.162;9.470;2023-04-15T09:01:54;95572.47;;;12.77;44.34
55271;BME280;41132;47.162;9.470;2023-04-15T09:04:21;95564.59;;;12.56;45.78
55271;BME280;41132;47.162;9.470;2023-04-15T09:06:46;95585.94;;;12.89;45.38
55271;BME280;41132;47.162;9.470;2023-04-15T09:09:12;95573.66;;;13.03;42.77
55271;BME280;41132;47.162;9.470;2023-04-15T09:11:38;95574.63;;;12.67;43.15
55271;BME280;41132;47.162;9.470;2023-04-15T09:14:04;95569.13;;;12.62;43.28
55271;BME280;41132;47.162;9.470;2023-04-15T09:16:30;95576.25;;;12.68;42.79
55271;BME280;41132;47.162;9.470;2023-04-15T09:18:56;95566.63;;;12.82;43.16
55271;BME280;41132;47.162;9.470;2023-04-15T09:21:22;95572.09;;;13.08;43.05
55271;BME280;41132;47.162;9.470;2023-04-15T09:23:59;95577.84;;;13.67;41.68
55271;BME280;41132;47.162;9.470;2023-04-15T09:26:37;95561.53;;;14.11;39.66
55271;BME280;41132;47.162;9.470;2023-04-15T09:29:08;95567.25;;;14.41;40.47
55271;BME280;41132;47.162;9.470;2023-04-15T09:31:35;95568.00;;;15.42;41.24
55271;BME280;41132;47.162;9.470;2023-04-15T09:34:01;95567.66;;;15.05;38.77
55271;BME280;41132;47.162;9.470;2023-04-15T09:36:28;95557.53;;;14.69;38.58
55271;BME280;41132;47.162;9.470;2023-04-15T09:38:58;95566.69;;;14.86;39.25
55271;BME280;41132;47.162;9.470;2023-04-15T09:41:25;95561.00;;;14.69;38.91
55271;BME280;41132;47.162;9.470;2023-04-15T09:43:51;95560.97;;;14.29;39.62
55271;BME280;41132;47.162;9.470;2023-04-15T09:46:17;95566.56;;;13.86;41.03
55271;BME280;41132;47.162;9.470;2023-04-15T09:48:42;95554.56;;;13.77;40.36
55271;BME280;41132;47.162;9.470;2023-04-15T09:51:07;95560.16;;;13.47;41.47
55271;BME280;41132;47.162;9.470;2023-04-15T09:53:35;95525.31;;;13.58;42.58
55271;BME280;41132;47.162;9.470;2023-04-15T09:56:01;95533.38;;;13.50;41.54
55271;BME280;41132;47.162;9.470;2023-04-15T09:58:28;95557.59;;;13.67;40.44
55271;BME280;41132;47.162;9.470;2023-04-15T10:00:55;95535.41;;;13.48;43.34
55271;BME280;41132;47.162;9.470;2023-04-15T10:03:32;95549.28;;;13.77;42.65
55271;BME280;41132;47.162;9.470;2023-04-15T10:06:00;95542.44;;;13.96;41.36
55271;BME280;41132;47.162;9.470;2023-04-15T10:08:28;95554.81;;;13.89;41.18
55271;BME280;41132;47.162;9.470;2023-04-15T10:10:54;95533.16;;;13.45;41.79
55271;BME280;41132;47.162;9.470;2023-04-15T10:13:22;95544.22;;;13.82;41.53
55271;BME280;41132;47.162;9.470;2023-04-15T10:15:57;95540.81;;;13.88;42.27
55271;BME280;41132;47.162;9.470;2023-04-15T10:18:25;95533.91;;;14.00;42.25
55271;BME280;41132;47.162;9.470;2023-04-15T10:20:52;95543.53;;;13.60;42.26
55271;BME280;41132;47.162;9.470;2023-04-15T10:23:17;95529.09;;;13.43;41.58
55271;BME280;41132;47.162;9.470;2023-04-15T10:25:43;95534.69;;;13.26;43.12
55271;BME280;41132;47.162;9.470;2023-04-15T10:28:10;95541.31;;;13.15;45.26
55271;BME280;41132;47.162;9.470;2023-04-15T10:30:36;95507.41;;;12.71;43.86
55271;BME280;41132;47.162;9.470;2023-04-15T10:33:04;95532.19;;;12.77;44.15
55271;BME280;41132;47.162;9.470;2023-04-15T10:35:31;95544.38;;;12.84;43.03
55271;BME280;41132;47.162;9.470;2023-04-15T10:37:57;95532.22;;;12.55;43.48
55271;BME280;41132;47.162;9.470;2023-04-15T10:42:54;95528.06;;;12.67;44.26
55271;BME280;41132;47.162;9.470;2023-04-15T10:45:20;95536.28;;;12.58;45.54
55271;BME280;41132;47.162;9.470;2023-04-15T10:47:45;95550.47;;;12.57;44.73
55271;BME280;41132;47.162;9.470;2023-04-15T10:50:10;95542.41;;;12.37;43.78
55271;BME280;41132;47.162;9.470;2023-04-15T10:52:39;95551.44;;;12.27;44.64
55271;BME280;41132;47.162;9.470;2023-04-15T10:57:37;95555.25;;;12.25;45.26
55271;BME280;41132;47.162;9.470;2023-04-15T11:00:17;95547.06;;;12.13;45.22
55271;BME280;41132;47.162;9.470;2023-04-15T11:05:17;95548.97;;;12.26;46.14
55271;BME280;41132;47.162;9.470;2023-04-15T11:12:44;95546.56;;;12.24;45.45
55271;BME280;41132;47.162;9.470;2023-04-15T11:18:18;95552.13;;;12.36;46.37
55271;BME280;41132;47.162;9.470;2023-04-15T11:20:50;95531.59;;;12.25;44.86
55271;BME280;41132;47.162;9.470;2023-04-15T11:23:17;95557.31;;;12.29;43.53
55271;BME280;41132;47.162;9.470;2023-04-15T11:25:43;95547.84;;;12.35;46.71
55271;BME280;41132;47.162;9.470;2023-04-15T11:28:10;95548.28;;;12.67;44.81
55271;BME280;41132;47.162;9.470;2023-04-15T11:30:37;95553.81;;;13.07;46.21
55271;BME280;41132;47.162;9.470;2023-04-15T11:33:04;95537.47;;;13.18;43.96
55271;BME280;41132;47.162;9.470;2023-04-15T11:35:30;95557.44;;;13.34;42.95
55271;BME280;41132;47.162;9.470;2023-04-15T11:37:56;95559.03;;;13.28;45.76
55271;BME280;41132;47.162;9.470;2023-04-15T11:40:24;95556.34;;;13.22;42.22
55271;BME280;41132;47.162;9.470;2023-04-15T11:45:59;95568.03;;;13.12;43.78
55271;BME280;41132;47.162;9.470;2023-04-15T11:48:27;95569.50;;;13.15;42.37
55271;BME280;41132;47.162;9.470;2023-04-15T11:50:58;95554.66;;;13.49;42.16
55271;BME280;41132;47.162;9.470;2023-04-15T11:53:24;95572.53;;;13.53;45.87
55271;BME280;41132;47.162;9.470;2023-04-15T11:55:59;95569.38;;;13.30;45.93
55271;BME280;41132;47.162;9.470;2023-04-15T11:58:25;95577.50;;;13.35;43.53
55271;BME280;41132;47.162;9.470;2023-04-15T12:00:58;95585.88;;;13.17;42.04
55271;BME280;41132;47.162;9.470;2023-04-15T12:03:29;95581.75;;;13.01;46.02
55271;BME280;41132;47.162;9.470;2023-04-15T12:06:14;95593.44;;;13.20;45.12
55271;BME280;41132;47.162;9.470;2023-04-15T12:14:08;95598.34;;;12.95;44.68
55271;BME280;41132;47.162;9.470;2023-04-15T12:16:35;95608.91;;;12.73;46.95
55271;BME280;41132;47.162;9.470;2023-04-15T12:19:04;95619.53;;;12.87;47.60
55271;BME280;41132;47.162;9.470;2023-04-15T12:21:33;95618.78;;;12.71;47.28
55271;BME280;41132;47.162;9.470;2023-04-15T12:24:02;95625.47;;;12.67;48.53
55271;BME280;41132;47.162;9.470;2023-04-15T12:26:31;95620.50;;;12.79;47.15
55271;BME280;41132;47.162;9.470;2023-04-15T12:29:07;95625.25;;;12.69;47.73
55271;BME280;41132;47.162;9.470;2023-04-15T12:31:34;95636.56;;;12.63;47.50
55271;BME280;41132;47.162;9.470;2023-04-15T12:34:01;95636.81;;;12.46;47.79
55271;BME280;41132;47.162;9.470;2023-04-15T12:36:27;95631.13;;;12.43;47.75
55271;BME280;41132;47.162;9.470;2023-04-15T12:38:53;95624.16;;;12.35;46.64
55271;BME280;41132;47.162;9.470;2023-04-15T12:41:20;95650.53;;;12.42;45.27
55271;BME280;41132;47.162;9.470;2023-04-15T12:43:46;95635.50;;;12.36;45.03
55271;BME280;41132;47.162;9.470;2023-04-15T12:46:12;95660.69;;;12.45;47.12
55271;BME280;41132;47.162;9.470;2023-04-15T12:48:39;95639.44;;;12.46;45.00
55271;BME280;41132;47.162;9.470;2023-04-15T12:51:04;95662.50;;;12.23;45.90
55271;BME280;41132;47.162;9.470;2023-04-15T12:53:30;95664.22;;;12.52;48.10
55271;BME280;41132;47.162;9.470;2023-04-15T12:55:55;95673.09;;;12.51;46.55
55271;BME280;41132;47.162;9.470;2023-04-15T12:58:21;95675.84;;;12.43;46.53
55271;BME280;41132;47.162;9.470;2023-04-15T13:00:46;95667.28;;;12.19;47.02
55271;BME280;41132;47.162;9.470;2023-04-15T13:03:11;95651.50;;;12.19;46.95
55271;BME280;41132;47.162;9.470;2023-04-15T13:05:37;95657.06;;;12.09;48.87
55271;BME280;41132;47.162;9.470;2023-04-15T13:08:04;95700.84;;;12.32;47.04
55271;BME280;41132;47.162;9.470;2023-04-15T13:10:30;95699.78;;;12.11;44.87
55271;BME280;41132;47.162;9.470;2023-04-15T13:12:56;95686.50;;;11.98;45.18
55271;BME280;41132;47.162;9.470;2023-04-15T13:15:21;95698.88;;;12.19;47.98
55271;BME280;41132;47.162;9.470;2023-04-15T13:17:47;95711.38;;;12.32;45.35
55271;BME280;41132;47.162;9.470;2023-04-15T13:20:13;95697.75;;;12.28;45.88
55271;BME280;41132;47.162;9.470;2023-04-15T13:22:38;95698.53;;;12.07;44.74
55271;BME280;41132;47.162;9.470;2023-04-15T13:25:04;95696.63;;;12.01;45.28
55271;BME280;41132;47.162;9.470;2023-04-15T13:27:29;95729.44;;;12.20;45.75
55271;BME280;41132;47.162;9.470;2023-04-15T13:29:55;95719.28;;;12.17;45.08
55271;BME280;41132;47.162;9.470;2023-04-15T13:32:21;95724.94;;;11.99;46.17
55271;BME280;41132;47.162;9.470;2023-04-15T13:34:46;95724.47;;;12.10;46.53
55271;BME280;41132;47.162;9.470;2023-04-15T13:37:12;95742.69;;;12.27;45.10
55271;BME280;41132;47.162;9.470;2023-04-15T13:39:37;95733.63;;;12.15;45.28
55271;BME280;41132;47.162;9.470;2023-04-15T13:42:02;95738.78;;;12.23;46.50
55271;BME280;41132;47.162;9.470;2023-04-15T13:44:28;95745.47;;;12.25;44.86
55271;BME280;41132;47.162;9.470;2023-04-15T13:46:54;95720.91;;;12.18;47.78
55271;BME280;41132;47.162;9.470;2023-04-15T13:49:19;95737.75;;;12.24;44.14
55271;BME280;41132;47.162;9.470;2023-04-15T13:51:45;95752.72;;;12.38;44.13
55271;BME280;41132;47.162;9.470;2023-04-15T13:54:10;95753.03;;;12.14;44.13
55271;BME280;41132;47.162;9.470;2023-04-15T13:56:36;95754.66;;;12.15;45.75
55271;BME280;41132;47.162;9.470;2023-04-15T13:59:01;95741.22;;;11.65;45.61
55271;BME280;41132;47.162;9.470;2023-04-15T14:01:27;95753.66;;;11.71;44.62
55271;BME280;41132;47.162;9.470;2023-04-15T14:03:53;95746.78;;;12.00;46.20
55271;BME280;41132;47.162;9.470;2023-04-15T14:06:18;95751.59;;;12.11;46.19
55271;BME280;41132;47.162;9.470;2023-04-15T14:08:44;95743.78;;;12.03;45.71
55271;BME280;41132;47.162;9.470;2023-04-15T14:11:10;95770.25;;;12.16;44.60
55271;BME280;41132;47.162;9.470;2023-04-15T14:13:36;95767.16;;;12.27;46.92
55271;BME280;41132;47.162;9.470;2023-04-15T14:16:01;95768.00;;;12.13;45.11
55271;BME280;41132;47.162;9.470;2023-04-15T14:18:27;95773.81;;;12.08;45.58
55271;BME280;41132;47.162;9.470;2023-04-15T14:20:52;95759.91;;;12.15;46.52
55271;BME280;41132;47.162;9.470;2023-04-15T14:23:18;95770.34;;;12.23;44.56
55271;BME280;41132;47.162;9.470;2023-04-15T14:25:43;95748.69;;;11.91;43.66
55271;BME280;41132;47.162;9.470;2023-04-15T14:28:09;95776.63;;;12.07;43.96
55271;BME280;41132;47.162;9.470;2023-04-15T14:30:34;95747.94;;;12.12;45.34
55271;BME280;41132;47.162;9.470;2023-04-15T14:33:00;95785.84;;;12.32;44.23
55271;BME280;41132;47.162;9.470;2023-04-15T14:35:26;95766.38;;;12.12;44.15
55271;BME280;41132;47.162;9.470;2023-04-15T14:37:55;95789.84;;;12.28;44.11
55271;BME280;41132;47.162;9.470;2023-04-15T14:40:20;95798.59;;;11.99;43.48
55271;BME280;41132;47.162;9.470;2023-04-15T14:42:46;95801.19;;;12.14;45.26
55271;BME280;41132;47.162;9.470;2023-04-15T14:45:11;95809.56;;;12.18;45.65
55271;BME280;41132;47.162;9.470;2023-04-15T14:47:36;95808.56;;;12.04;42.78
55271;BME280;41132;47.162;9.470;2023-04-15T14:50:07;95800.00;;;12.17;43.97
55271;BME280;41132;47.162;9.470;2023-04-15T14:52:32;95803.19;;;12.12;44.73
55271;BME280;41132;47.162;9.470;2023-04-15T14:55:07;95821.06;;;12.17;45.59
55271;BME280;41132;47.162;9.470;2023-04-15T14:57:36;95825.97;;;12.20;49.30
55271;BME280;41132;47.162;9.470;2023-04-15T15:00:03;95827.44;;;11.84;48.08
55271;BME280;41132;47.162;9.470;2023-04-15T15:02:29;95802.91;;;11.92;50.59
55271;BME280;41132;47.162;9.470;2023-04-15T15:04:55;95843.50;;;11.75;49.83
55271;BME280;41132;47.162;9.470;2023-04-15T15:07:22;95848.25;;;11.94;51.73
55271;BME280;41132;47.162;9.470;2023-04-15T15:09:47;95860.41;;;12.10;50.93
55271;BME280;41132;47.162;9.470;2023-04-15T15:12:13;95818.25;;;11.88;51.31
55271;BME280;41132;47.162;9.470;2023-04-15T15:14:38;95866.06;;;12.22;50.83
55271;BME280;41132;47.162;9.470;2023-04-15T15:17:03;95864.22;;;11.93;49.93
55271;BME280;41132;47.162;9.470;2023-04-15T15:19:29;95870.34;;;11.47;50.25
55271;BME280;41132;47.162;9.470;2023-04-15T15:21:54;95833.56;;;11.47;50.43
55271;BME280;41132;47.162;9.470;2023-04-15T15:24:20;95875.91;;;11.67;50.19
55271;BME280;41132;47.162;9.470;2023-04-15T15:26:45;95883.91;;;11.74;50.02
55271;BME280;41132;47.162;9.470;2023-04-15T15:29:11;95884.28;;;11.70;50.23
55271;BME280;41132;47.162;9.470;2023-04-15T15:31:36;95890.34;;;11.71;50.43
55271;BME280;41132;47.162;9.470;2023-04-15T15:34:02;95874.44;;;11.49;50.66
55271;BME280;41132;47.162;9.470;2023-04-15T15:36:29;95888.84;;;11.54;47.52
55271;BME280;41132;47.162;9.470;2023-04-15T15:38:56;95879.91;;;11.40;47.78
55271;BME280;41132;47.162;9.470;2023-04-15T15:41:22;95883.91;;;11.36;49.90
55271;BME280;41132;47.162;9.470;2023-04-15T15:43:47;95914.53;;;11.43;48.70
55271;BME280;41132;47.162;9.470;2023-04-15T15:46:13;95890.53;;;11.23;47.65
55271;BME280;41132;47.162;9.470;2023-04-15T15:48:38;95890.50;;;11.00;46.94
55271;BME280;41132;47.162;9.470;2023-04-15T15:51:04;95871.06;;;10.86;45.79
55271;BME280;41132;47.162;9.470;2023-04-15T15:53:29;95913.09;;;11.10;47.51
55271;BME280;41132;47.162;9.470;2023-04-15T15:55:55;95890.44;;;10.85;48.38
55271;BME280;41132;47.162;9.470;2023-04-15T15:58:20;95852.34;;;10.58;46.81
55271;BME280;41132;47.162;9.470;2023-04-15T16:00:46;95896.16;;;10.89;47.00
55271;BME280;41132;47.162;9.470;2023-04-15T16:03:11;95875.88;;;10.75;47.44
55271;BME280;41132;47.162;9.470;2023-04-15T16:05:37;95877.94;;;10.87;45.44
55271;BME280;41132;47.162;9.470;2023-04-15T16:08:03;95886.03;;;10.78;47.34
55271;BME280;41132;47.162;9.470;2023-04-15T16:10:29;95900.53;;;10.65;51.49
55271;BME280;41132;47.162;9.470;2023-04-15T16:12:54;95931.53;;;10.70;55.53
55271;BME280;41132;47.162;9.470;2023-04-15T16:15:21;95928.53;;;10.73;55.59
55271;BME280;41132;47.162;9.470;2023-04-15T16:17:47;95936.28;;;10.66;55.12
55271;BME280;41132;47.162;9.470;2023-04-15T16:20:12;95941.69;;;10.65;53.27
55271;BME280;41132;47.162;9.470;2023-04-15T16:22:38;95943.34;;;10.66;54.07
55271;BME280;41132;47.162;9.470;2023-04-15T16:25:03;95920.28;;;10.45;53.54
55271;BME280;41132;47.162;9.470;2023-04-15T16:27:29;95941.81;;;10.72;53.31
55271;BME280;41132;47.162;9.470;2023-04-15T16:29:54;95953.16;;;10.72;56.07
55271;BME280;41132;47.162;9.470;2023-04-15T16:32:20;95951.72;;;10.61;57.79
55271;BME280;41132;47.162;9.470;2023-04-15T16:34:46;95958.28;;;10.65;59.13
55271;BME280;41132;47.162;9.470;2023-04-15T16:37:11;95947.06;;;10.72;57.34
55271;BME280;41132;47.162;9.470;2023-04-15T16:39:37;95942.69;;;10.56;60.25
55271;BME280;41132;47.162;9.470;2023-04-15T16:42:02;95943.88;;;10.53;61.07
55271;BME280;41132;47.162;9.470;2023-04-15T16:44:28;95962.88;;;10.55;57.71
55271;BME280;41132;47.162;9.470;2023-04-15T16:46:54;95919.00;;;10.33;57.44
55271;BME280;41132;47.162;9.470;2023-04-15T16:49:19;95935.38;;;10.35;56.83
55271;BME280;41132;47.162;9.470;2023-04-15T16:51:45;95952.91;;;10.26;56.25
55271;BME280;41132;47.162;9.470;2023-04-15T16:54:10;95941.66;;;10.17;58.06
55271;BME280;41132;47.162;9.470;2023-04-15T16:56:36;95978.66;;;10.39;57.57
55271;BME280;41132;47.162;9.470;2023-04-15T16:59:01;95976.06;;;10.22;57.40
55271;BME280;41132;47.162;9.470;2023-04-15T17:01:27;95936.59;;;9.99;59.04
55271;BME280;41132;47.162;9.470;2023-04-15T17:03:53;95941.81;;;9.99;58.51
55271;BME280;41132;47.162;9.470;2023-04-15T17:06:18;95960.81;;;9.85;59.50
55271;BME280;41132;47.162;9.470;2023-04-15T17:08:44;95991.47;;;10.01;60.36
55271;BME280;41132;47.162;9.470;2023-04-15T17:11:09;96001.78;;;9.94;61.50
55271;BME280;41132;47.162;9.470;2023-04-15T17:13:36;96017.19;;;9.97;62.26
55271;BME280;41132;47.162;9.470;2023-04-15T17:16:01;96015.53;;;9.96;66.22
55271;BME280;41132;47.162;9.470;2023-04-15T17:18:27;95990.13;;;9.64;66.05
55271;BME280;41132;47.162;9.470;2023-04-15T17:20:54;96028.00;;;9.86;65.96
55271;BME280;41132;47.162;9.470;2023-04-15T17:23:20;96018.16;;;9.80;66.83
55271;BME280;41132;47.162;9.470;2023-04-15T17:25:45;96022.41;;;9.73;67.17
55271;BME280;41132;47.162;9.470;2023-04-15T17:28:12;95996.97;;;9.49;66.62
55271;BME280;41132;47.162;9.470;2023-04-15T17:30:37;96031.41;;;9.54;69.66
55271;BME280;41132;47.162;9.470;2023-04-15T17:33:02;96038.22;;;9.47;66.75
55271;BME280;41132;47.162;9.470;2023-04-15T17:35:28;96039.88;;;9.48;67.68
55271;BME280;41132;47.162;9.470;2023-04-15T17:37:55;96039.22;;;9.46;69.41
55271;BME280;41132;47.162;9.470;2023-04-15T17:40:20;96067.75;;;9.57;65.91
55271;BME280;41132;47.162;9.470;2023-04-15T17:42:45;96035.91;;;9.35;65.21
55271;BME280;41132;47.162;9.470;2023-04-15T17:45:11;96062.47;;;9.40;66.73
55271;BME280;41132;47.162;9.470;2023-04-15T17:47:36;96057.50;;;9.29;66.09
55271;BME280;41132;47.162;9.470;2023-04-15T17:50:02;96063.09;;;9.34;67.92
55271;BME280;41132;47.162;9.470;2023-04-15T17:52:27;96050.75;;;9.18;68.52
55271;BME280;41132;47.162;9.470;2023-04-15T17:54:53;96072.84;;;9.24;67.07
55271;BME280;41132;47.162;9.470;2023-04-15T17:57:18;96096.63;;;9.31;72.93
55271;BME280;41132;47.162;9.470;2023-04-15T17:59:44;96069.50;;;9.06;69.38
55271;BME280;41132;47.162;9.470;2023-04-15T18:02:11;96108.22;;;9.28;67.85
55271;BME280;41132;47.162;9.470;2023-04-15T18:04:36;96110.38;;;9.25;70.77
55271;BME280;41132;47.162;9.470;2023-04-15T18:07:03;96122.47;;;9.26;70.69
55271;BME280;41132;47.162;9.470;2023-04-15T18:09:29;96123.91;;;9.20;70.55
55271;BME280;41132;47.162;9.470;2023-04-15T18:11:55;96116.13;;;9.02;68.96
55271;BME280;41132;47.162;9.470;2023-04-15T18:14:21;96111.09;;;8.83;76.18
55271;BME280;41132;47.162;9.470;2023-04-15T18:16:47;96181.53;;;8.76;86.88
55271;BME280;41132;47.162;9.470;2023-04-15T18:19:13;96184.63;;;8.53;92.35
55271;BME280;41132;47.162;9.470;2023-04-15T18:21:39;96208.56;;;8.41;98.35
55271;BME280;41132;47.162;9.470;2023-04-15T18:24:05;96203.06;;;8.34;100.00
55271;BME280;41132;47.162;9.470;2023-04-15T18:26:31;96187.91;;;7.92;100.00
55271;BME280;41132;47.162;9.470;2023-04-15T18:28:56;96183.56;;;7.83;100.00
55271;BME280;41132;47.162;9.470;2023-04-15T18:31:21;96226.44;;;7.62;100.00
55271;BME280;41132;47.162;9.470;2023-04-15T18:33:47;96244.47;;;7.56;100.00
55271;BME280;41132;47.162;9.470;2023-04-15T18:36:13;96202.34;;;7.31;100.00
55271;BME280;41132;47.162;9.470;2023-04-15T18:38:38;96262.56;;;7.20;100.00
55271;BME280;41132;47.162;9.470;2023-04-15T18:41:03;96240.00;;;7.28;100.00
55271;BME280;41132;47.162;9.470;2023-04-15T18:43:32;96267.44;;;7.42;100.00
55271;BME280;41132;47.162;9.470;2023-04-15T18:45:58;96279.59;;;7.24;100.00
55271;BME280;41132;47.162;9.470;2023-04-15T18:48:25;96269.88;;;6.97;100.00
55271;BME280;41132;47.162;9.470;2023-04-15T18:50:50;96293.63;;;7.13;100.00
55271;BME280;41132;47.162;9.470;2023-04-15T18:53:18;96300.34;;;7.25;100.00
55271;BME280;41132;47.162;9.470;2023-04-15T18:55:44;96292.81;;;6.93;100.00